sensor_id;sensor_type;location;lat;lon;timestamp;pressure;altitude;pressure_sealevel;temperature;humidity
37710;BME280;60223;34.854;-92.408;2023-01-30T00:01:12;100634.29;;;22.48;29.79
37710;BME280;60223;34.854;-92.408;2023-01-30T00:03:32;100656.29;;;22.19;29.92
37710;BME280;60223;34.854;-92.408;2023-01-30T00:05:58;100679.41;;;21.95;29.88
37710;BME280;60223;34.854;-92.408;2023-01-30T00:08:24;100700.06;;;22.11;29.97
37710;BME280;60223;34.854;-92.408;2023-01-30T00:10:49;100735.74;;;22.59;29.51
37710;BME280;60223;34.854;-92.408;2023-01-30T00:13:16;100751.77;;;22.53;29.50
37710;BME280;60223;34.854;-92.408;2023-01-30T00:15:41;100763.75;;;22.41;29.57
37710;BME280;60223;34.854;-92.408;2023-01-30T00:18:04;100763.06;;;22.56;29.41
37710;BME280;60223;34.854;-92.408;2023-01-30T00:20:30;100760.98;;;22.58;29.42
37710;BME280;60223;34.854;-92.408;2023-01-30T00:22:57;100750.88;;;22.48;29.36
37710;BME280;60223;34.854;-92.408;2023-01-30T00:25:22;100761.65;;;22.61;29.22
37710;BME280;60223;34.854;-92.408;2023-01-30T00:27:48;100777.35;;;22.57;29.22
37710;BME280;60223;34.854;-92.408;2023-01-30T00:30:14;100788.77;;;22.56;29.14
37710;BME280;60223;34.854;-92.408;2023-01-30T00:32:39;100801.03;;;22.77;28.95
37710;BME280;60223;34.854;-92.408;2023-01-30T00:35:05;100784.27;;;22.48;29.18
37710;BME280;60223;34.854;-92.408;2023-01-30T00:37:28;100828.63;;;22.86;28.80
37710;BME280;60223;34.854;-92.408;2023-01-30T00:39:56;100862.05;;;22.55;29.06
37710;BME280;60223;34.854;-92.408;2023-01-30T00:42:22;100871.92;;;22.73;28.84
37710;BME280;60223;34.854;-92.408;2023-01-30T00:44:46;100865.62;;;22.91;29.12
37710;BME280;60223;34.854;-92.408;2023-01-30T00:47:13;100840.49;;;22.08;29.50
37710;BME280;60223;34.854;-92.408;2023-01-30T00:49:38;100857.63;;;22.48;29.06
37710;BME280;60223;34.854;-92.408;2023-01-30T00:52:01;100857.58;;;22.82;28.61
37710;BME280;60223;34.854;-92.408;2023-01-30T00:54:29;100849.95;;;22.76;28.52
37710;BME280;60223;34.854;-92.408;2023-01-30T00:56:55;100851.45;;;23.05;28.43
37710;BME280;60223;34.854;-92.408;2023-01-30T00:59:20;100859.06;;;22.51;28.91
37710;BME280;60223;34.854;-92.408;2023-01-30T01:01:46;100854.69;;;22.23;29.15
37710;BME280;60223;34.854;-92.408;2023-01-30T01:04:12;100868.76;;;22.63;28.95
37710;BME280;60223;34.854;-92.408;2023-01-30T01:06:37;100908.29;;;23.27;28.16
37710;BME280;60223;34.854;-92.408;2023-01-30T01:09:01;100936.23;;;23.41;28.23
37710;BME280;60223;34.854;-92.408;2023-01-30T01:11:29;100977.93;;;23.52;27.86
37710;BME280;60223;34.854;-92.408;2023-01-30T01:13:55;101001.07;;;23.55;28.05
37710;BME280;60223;34.854;-92.408;2023-01-30T01:16:19;101014.96;;;23.58;27.81
37710;BME280;60223;34.854;-92.408;2023-01-30T01:18:45;101029.92;;;23.18;28.12
37710;BME280;60223;34.854;-92.408;2023-01-30T01:21:10;101050.45;;;22.84;28.42
37710;BME280;60223;34.854;-92.408;2023-01-30T01:23:36;101061.19;;;22.87;28.37
37710;BME280;60223;34.854;-92.408;2023-01-30T01:26:01;101061.75;;;22.31;28.88
37710;BME280;60223;34.854;-92.408;2023-01-30T01:28:28;101055.69;;;22.98;28.46
37710;BME280;60223;34.854;-92.408;2023-01-30T01:30:53;101048.23;;;22.73;28.66
37710;BME280;60223;34.854;-92.408;2023-01-30T01:33:19;101045.73;;;22.85;28.28
37710;BME280;60223;34.854;-92.408;2023-01-30T01:35:43;101037.50;;;22.49;28.60
37710;BME280;60223;34.854;-92.408;2023-01-30T01:38:11;101029.42;;;23.07;28.04
37710;BME280;60223;34.854;-92.408;2023-01-30T01:40:35;101021.68;;;23.77;27.59
37710;BME280;60223;34.854;-92.408;2023-01-30T01:43:02;101002.55;;;22.90;28.16
37710;BME280;60223;34.854;-92.408;2023-01-30T01:45:28;100945.64;;;23.60;27.63
37710;BME280;60223;34.854;-92.408;2023-01-30T01:48:01;100820.37;;;22.96;27.97
37710;BME280;60223;34.854;-92.408;2023-01-30T01:50:23;100710.23;;;22.54;28.33
37710;BME280;60223;34.854;-92.408;2023-01-30T01:52:45;100723.16;;;23.29;27.63
37710;BME280;60223;34.854;-92.408;2023-01-30T01:55:10;100729.74;;;23.06;28.03
37710;BME280;60223;34.854;-92.408;2023-01-30T01:57:38;100753.58;;;22.78;28.31
37710;BME280;60223;34.854;-92.408;2023-01-30T02:00:06;100778.08;;;22.32;28.72
37710;BME280;60223;34.854;-92.408;2023-01-30T02:02:28;100787.74;;;22.54;28.34
37710;BME280;60223;34.854;-92.408;2023-01-30T02:04:55;100831.81;;;22.70;28.13
37710;BME280;60223;34.854;-92.408;2023-01-30T02:07:19;100867.53;;;22.63;28.41
37710;BME280;60223;34.854;-92.408;2023-01-30T02:09:44;100887.22;;;23.18;27.87
37710;BME280;60223;34.854;-92.408;2023-01-30T02:12:11;100897.82;;;22.60;28.14
37710;BME280;60223;34.854;-92.408;2023-01-30T02:14:36;100890.41;;;21.94;28.75
37710;BME280;60223;34.854;-92.408;2023-01-30T02:16:59;100900.48;;;21.60;29.15
37710;BME280;60223;34.854;-92.408;2023-01-30T02:19:33;100917.17;;;22.54;28.69
37710;BME280;60223;34.854;-92.408;2023-01-30T02:22:10;100925.28;;;22.21;28.77
37710;BME280;60223;34.854;-92.408;2023-01-30T02:24:34;100926.92;;;22.09;28.59
37710;BME280;60223;34.854;-92.408;2023-01-30T02:26:59;100919.25;;;22.71;27.98
37710;BME280;60223;34.854;-92.408;2023-01-30T02:29:22;100921.58;;;23.03;28.08
37710;BME280;60223;34.854;-92.408;2023-01-30T02:31:39;100927.88;;;22.72;28.39
37710;BME280;60223;34.854;-92.408;2023-01-30T02:34:10;100927.98;;;22.58;28.56
37710;BME280;60223;34.854;-92.408;2023-01-30T02:36:32;100929.26;;;22.37;28.25
37710;BME280;60223;34.854;-92.408;2023-01-30T02:39:00;100935.08;;;22.58;28.24
37710;BME280;60223;34.854;-92.408;2023-01-30T02:41:26;100940.78;;;22.39;28.39
37710;BME280;60223;34.854;-92.408;2023-01-30T02:43:50;100939.32;;;22.89;28.12
37710;BME280;60223;34.854;-92.408;2023-01-30T02:46:16;100937.57;;;22.27;28.49
37710;BME280;60223;34.854;-92.408;2023-01-30T02:48:39;100940.11;;;22.22;28.31
37710;BME280;60223;34.854;-92.408;2023-01-30T02:51:04;100942.54;;;22.69;28.18
37710;BME280;60223;34.854;-92.408;2023-01-30T02:53:29;100946.01;;;22.43;28.18
37710;BME280;60223;34.854;-92.408;2023-01-30T02:55:50;100961.20;;;23.26;27.81
37710;BME280;60223;34.854;-92.408;2023-01-30T02:58:21;100979.02;;;23.04;27.99
37710;BME280;60223;34.854;-92.408;2023-01-30T03:00:57;100992.46;;;22.87;27.91
37710;BME280;60223;34.854;-92.408;2023-01-30T03:03:20;100998.93;;;23.34;27.68
37710;BME280;60223;34.854;-92.408;2023-01-30T03:05:52;101006.52;;;23.12;27.89
37710;BME280;60223;34.854;-92.408;2023-01-30T03:08:10;101005.96;;;22.09;28.39
37710;BME280;60223;34.854;-92.408;2023-01-30T03:10:33;101015.48;;;22.21;28.27
37710;BME280;60223;34.854;-92.408;2023-01-30T03:12:59;101025.23;;;22.85;28.18
37710;BME280;60223;34.854;-92.408;2023-01-30T03:15:20;101023.47;;;22.17;28.48
37710;BME280;60223;34.854;-92.408;2023-01-30T03:17:46;101017.08;;;22.12;28.49
37710;BME280;60223;34.854;-92.408;2023-01-30T03:20:11;101013.68;;;22.06;28.55
37710;BME280;60223;34.854;-92.408;2023-01-30T03:22:35;101015.61;;;22.22;28.62
37710;BME280;60223;34.854;-92.408;2023-01-30T03:25:01;101015.24;;;21.95;28.88
37710;BME280;60223;34.854;-92.408;2023-01-30T03:27:27;101022.51;;;21.58;29.00
37710;BME280;60223;34.854;-92.408;2023-01-30T03:29:53;101014.22;;;21.95;28.82
37710;BME280;60223;34.854;-92.408;2023-01-30T03:32:18;101012.70;;;22.49;28.26
37710;BME280;60223;34.854;-92.408;2023-01-30T03:34:45;101006.76;;;21.61;28.64
37710;BME280;60223;34.854;-92.408;2023-01-30T03:37:11;101008.10;;;22.05;28.47
37710;BME280;60223;34.854;-92.408;2023-01-30T03:39:36;101008.60;;;21.80;28.94
37710;BME280;60223;34.854;-92.408;2023-01-30T03:41:59;101012.30;;;22.07;28.45
37710;BME280;60223;34.854;-92.408;2023-01-30T03:44:27;101010.13;;;21.97;28.72
37710;BME280;60223;34.854;-92.408;2023-01-30T03:46:53;101012.74;;;22.11;28.62
37710;BME280;60223;34.854;-92.408;2023-01-30T03:49:18;101019.19;;;21.87;28.78
37710;BME280;60223;34.854;-92.408;2023-01-30T03:51:45;101020.19;;;21.74;28.91
37710;BME280;60223;34.854;-92.408;2023-01-30T03:54:11;101021.12;;;21.90;28.80
37710;BME280;60223;34.854;-92.408;2023-01-30T03:56:36;101025.28;;;21.39;29.06
37710;BME280;60223;34.854;-92.408;2023-01-30T03:59:02;101031.09;;;22.72;27.96
37710;BME280;60223;34.854;-92.408;2023-01-30T04:01:28;101029.62;;;22.20;28.43
37710;BME280;60223;34.854;-92.408;2023-01-30T04:03:53;101031.52;;;22.23;28.25
37710;BME280;60223;34.854;-92.408;2023-01-30T04:06:16;101045.38;;;22.06;28.63
37710;BME280;60223;34.854;-92.408;2023-01-30T04:08:45;101047.81;;;21.66;28.87
37710;BME280;60223;34.854;-92.408;2023-01-30T04:11:10;101047.95;;;21.44;28.87
37710;BME280;60223;34.854;-92.408;2023-01-30T04:13:33;101057.78;;;21.50;28.60
37710;BME280;60223;34.854;-92.408;2023-01-30T04:16:13;101069.05;;;21.75;28.40
37710;BME280;60223;34.854;-92.408;2023-01-30T04:18:27;101072.98;;;21.52;28.87
37710;BME280;60223;34.854;-92.408;2023-01-30T04:20:54;101075.76;;;21.37;29.08
37710;BME280;60223;34.854;-92.408;2023-01-30T04:23:19;101074.32;;;21.53;29.14
37710;BME280;60223;34.854;-92.408;2023-01-30T04:25:45;101074.40;;;21.36;29.05
37710;BME280;60223;34.854;-92.408;2023-01-30T04:28:10;101064.85;;;21.47;28.90
37710;BME280;60223;34.854;-92.408;2023-01-30T04:30:36;101068.15;;;21.34;29.01
37710;BME280;60223;34.854;-92.408;2023-01-30T04:33:02;101059.03;;;21.79;28.73
37710;BME280;60223;34.854;-92.408;2023-01-30T04:35:27;101058.89;;;22.00;28.39
37710;BME280;60223;34.854;-92.408;2023-01-30T04:37:53;101057.31;;;22.24;27.78
37710;BME280;60223;34.854;-92.408;2023-01-30T04:40:19;101059.25;;;22.12;27.93
37710;BME280;60223;34.854;-92.408;2023-01-30T04:42:45;101061.05;;;21.57;28.58
37710;BME280;60223;34.854;-92.408;2023-01-30T04:45:11;101066.48;;;21.29;28.84
37710;BME280;60223;34.854;-92.408;2023-01-30T04:47:35;101073.31;;;21.10;29.02
37710;BME280;60223;34.854;-92.408;2023-01-30T04:50:02;101075.60;;;20.89;28.94
37710;BME280;60223;34.854;-92.408;2023-01-30T04:52:28;101077.65;;;21.11;28.95
37710;BME280;60223;34.854;-92.408;2023-01-30T04:54:53;101076.15;;;20.96;28.81
37710;BME280;60223;34.854;-92.408;2023-01-30T04:57:16;101078.65;;;21.14;28.89
37710;BME280;60223;34.854;-92.408;2023-01-30T04:59:44;101082.75;;;21.04;28.93
37710;BME280;60223;34.854;-92.408;2023-01-30T05:02:11;101080.39;;;21.58;28.64
37710;BME280;60223;34.854;-92.408;2023-01-30T05:04:35;101076.01;;;21.26;28.71
37710;BME280;60223;34.854;-92.408;2023-01-30T05:07:02;101089.26;;;21.20;28.75
37710;BME280;60223;34.854;-92.408;2023-01-30T05:09:28;101099.15;;;20.98;28.92
37710;BME280;60223;34.854;-92.408;2023-01-30T05:11:53;101101.45;;;21.44;28.49
37710;BME280;60223;34.854;-92.408;2023-01-30T05:14:19;101102.32;;;21.46;28.50
37710;BME280;60223;34.854;-92.408;2023-01-30T05:16:45;101102.09;;;21.43;28.60
37710;BME280;60223;34.854;-92.408;2023-01-30T05:19:12;101100.71;;;21.23;28.76
37710;BME280;60223;34.854;-92.408;2023-01-30T05:21:36;101098.85;;;21.03;28.73
37710;BME280;60223;34.854;-92.408;2023-01-30T05:24:00;101094.90;;;21.25;28.80
37710;BME280;60223;34.854;-92.408;2023-01-30T05:26:28;101100.23;;;21.06;28.72
37710;BME280;60223;34.854;-92.408;2023-01-30T05:28:55;101112.31;;;20.86;28.90
37710;BME280;60223;34.854;-92.408;2023-01-30T05:31:20;101111.72;;;20.84;28.90
37710;BME280;60223;34.854;-92.408;2023-01-30T05:33:45;101115.28;;;20.99;28.71
37710;BME280;60223;34.854;-92.408;2023-01-30T05:36:15;101114.55;;;21.05;28.84
37710;BME280;60223;34.854;-92.408;2023-01-30T05:38:37;101111.26;;;20.75;28.70
37710;BME280;60223;34.854;-92.408;2023-01-30T05:41:03;101110.55;;;20.78;28.88
37710;BME280;60223;34.854;-92.408;2023-01-30T05:43:28;101112.47;;;20.66;28.99
37710;BME280;60223;34.854;-92.408;2023-01-30T05:45:55;101126.50;;;21.20;28.65
37710;BME280;60223;34.854;-92.408;2023-01-30T05:48:19;101122.23;;;20.91;28.71
37710;BME280;60223;34.854;-92.408;2023-01-30T05:58:03;101131.04;;;22.11;27.51
37710;BME280;60223;34.854;-92.408;2023-01-30T06:00:27;101129.03;;;22.03;27.50
37710;BME280;60223;34.854;-92.408;2023-01-30T06:02:54;101128.08;;;20.88;28.57
37710;BME280;60223;34.854;-92.408;2023-01-30T06:05:18;101121.87;;;20.86;28.61
37710;BME280;60223;34.854;-92.408;2023-01-30T06:07:45;101115.83;;;21.27;28.64
37710;BME280;60223;34.854;-92.408;2023-01-30T06:10:12;101122.76;;;20.81;28.62
37710;BME280;60223;34.854;-92.408;2023-01-30T06:12:37;101127.09;;;20.59;28.84
37710;BME280;60223;34.854;-92.408;2023-01-30T06:15:00;101121.19;;;21.52;28.15
37710;BME280;60223;34.854;-92.408;2023-01-30T06:17:29;101119.78;;;21.07;28.57
37710;BME280;60223;34.854;-92.408;2023-01-30T06:19:54;101127.62;;;21.74;27.77
37710;BME280;60223;34.854;-92.408;2023-01-30T06:22:19;101127.11;;;21.30;28.18
37710;BME280;60223;34.854;-92.408;2023-01-30T06:24:46;101135.02;;;20.90;28.43
37710;BME280;60223;34.854;-92.408;2023-01-30T06:27:12;101136.66;;;22.43;27.15
37710;BME280;60223;34.854;-92.408;2023-01-30T06:29:37;101136.20;;;22.24;27.29
37710;BME280;60223;34.854;-92.408;2023-01-30T06:32:00;101144.21;;;22.54;26.74
37710;BME280;60223;34.854;-92.408;2023-01-30T06:34:29;101143.88;;;22.64;26.53
37710;BME280;60223;34.854;-92.408;2023-01-30T06:36:55;101143.80;;;23.09;26.56
37710;BME280;60223;34.854;-92.408;2023-01-30T06:39:20;101144.11;;;22.87;26.36
37710;BME280;60223;34.854;-92.408;2023-01-30T06:41:46;101150.43;;;22.51;26.48
37710;BME280;60223;34.854;-92.408;2023-01-30T06:44:12;101149.10;;;22.32;26.60
37710;BME280;60223;34.854;-92.408;2023-01-30T06:46:37;101148.22;;;22.43;26.65
37710;BME280;60223;34.854;-92.408;2023-01-30T06:49:00;101145.99;;;20.83;27.92
37710;BME280;60223;34.854;-92.408;2023-01-30T06:51:29;101155.38;;;20.87;27.84
37710;BME280;60223;34.854;-92.408;2023-01-30T06:53:55;101149.23;;;20.63;28.33
37710;BME280;60223;34.854;-92.408;2023-01-30T06:56:21;101134.15;;;20.53;28.41
37710;BME280;60223;34.854;-92.408;2023-01-30T06:58:46;101131.13;;;20.55;28.38
37710;BME280;60223;34.854;-92.408;2023-01-30T07:01:12;101142.18;;;20.72;28.13
37710;BME280;60223;34.854;-92.408;2023-01-30T07:03:36;101139.87;;;21.07;27.77
37710;BME280;60223;34.854;-92.408;2023-01-30T07:06:04;101136.93;;;20.65;28.42
37710;BME280;60223;34.854;-92.408;2023-01-30T07:08:30;101146.58;;;20.75;28.28
37710;BME280;60223;34.854;-92.408;2023-01-30T07:15:48;101164.35;;;20.67;28.06
37710;BME280;60223;34.854;-92.408;2023-01-30T07:18:10;101171.99;;;20.54;28.23
37710;BME280;60223;34.854;-92.408;2023-01-30T07:20:37;101175.78;;;20.40;28.36
37710;BME280;60223;34.854;-92.408;2023-01-30T07:23:02;101176.28;;;20.37;28.36
37710;BME280;60223;34.854;-92.408;2023-01-30T07:25:30;101187.25;;;20.51;28.43
37710;BME280;60223;34.854;-92.408;2023-01-30T07:27:57;101186.20;;;20.35;28.30
37710;BME280;60223;34.854;-92.408;2023-01-30T07:30:22;101186.31;;;20.51;28.37
37710;BME280;60223;34.854;-92.408;2023-01-30T07:32:49;101188.25;;;20.55;28.30
37710;BME280;60223;34.854;-92.408;2023-01-30T07:35:13;101192.26;;;20.22;28.36
37710;BME280;60223;34.854;-92.408;2023-01-30T07:37:39;101190.18;;;19.95;28.58
37710;BME280;60223;34.854;-92.408;2023-01-30T07:40:05;101190.71;;;20.13;28.38
37710;BME280;60223;34.854;-92.408;2023-01-30T07:42:30;101190.97;;;20.03;28.43
37710;BME280;60223;34.854;-92.408;2023-01-30T07:44:56;101195.60;;;20.47;28.23
37710;BME280;60223;34.854;-92.408;2023-01-30T07:47:22;101197.46;;;20.44;28.25
37710;BME280;60223;34.854;-92.408;2023-01-30T07:49:48;101192.40;;;20.13;28.51
37710;BME280;60223;34.854;-92.408;2023-01-30T07:52:13;101186.87;;;20.05;28.59
37710;BME280;60223;34.854;-92.408;2023-01-30T07:54:39;101189.62;;;20.10;28.48
37710;BME280;60223;34.854;-92.408;2023-01-30T07:57:05;101187.05;;;20.20;28.35
37710;BME280;60223;34.854;-92.408;2023-01-30T07:59:30;101188.22;;;19.97;28.53
37710;BME280;60223;34.854;-92.408;2023-01-30T08:01:56;101189.95;;;20.06;28.42
37710;BME280;60223;34.854;-92.408;2023-01-30T08:04:20;101188.73;;;20.15;28.32
37710;BME280;60223;34.854;-92.408;2023-01-30T08:06:48;101183.80;;;20.01;28.43
37710;BME280;60223;34.854;-92.408;2023-01-30T08:09:13;101187.54;;;19.92;28.53
37710;BME280;60223;34.854;-92.408;2023-01-30T08:11:39;101187.14;;;19.87;28.56
37710;BME280;60223;34.854;-92.408;2023-01-30T08:14:05;101179.06;;;19.94;28.43
37710;BME280;60223;34.854;-92.408;2023-01-30T08:16:31;101183.32;;;20.05;28.33
37710;BME280;60223;34.854;-92.408;2023-01-30T08:18:57;101188.82;;;19.97;28.35
37710;BME280;60223;34.854;-92.408;2023-01-30T08:21:22;101194.35;;;20.34;28.46
37710;BME280;60223;34.854;-92.408;2023-01-30T08:23:48;101199.92;;;19.67;28.59
37710;BME280;60223;34.854;-92.408;2023-01-30T08:26:14;101210.28;;;19.81;28.45
37710;BME280;60223;34.854;-92.408;2023-01-30T08:28:39;101220.61;;;19.80;28.44
37710;BME280;60223;34.854;-92.408;2023-01-30T08:31:08;101223.56;;;19.82;28.40
37710;BME280;60223;34.854;-92.408;2023-01-30T08:33:31;101225.39;;;19.91;28.29
37710;BME280;60223;34.854;-92.408;2023-01-30T08:35:58;101234.79;;;19.83;28.34
37710;BME280;60223;34.854;-92.408;2023-01-30T08:38:23;101240.60;;;19.77;28.36
37710;BME280;60223;34.854;-92.408;2023-01-30T08:40:49;101245.98;;;19.78;28.34
37710;BME280;60223;34.854;-92.408;2023-01-30T08:43:14;101247.80;;;19.94;28.41
37710;BME280;60223;34.854;-92.408;2023-01-30T08:45:40;101242.79;;;19.71;28.38
37710;BME280;60223;34.854;-92.408;2023-01-30T08:48:06;101239.48;;;19.77;28.28
37710;BME280;60223;34.854;-92.408;2023-01-30T08:50:32;101244.29;;;19.52;28.49
37710;BME280;60223;34.854;-92.408;2023-01-30T08:52:55;101243.30;;;19.80;28.46
37710;BME280;60223;34.854;-92.408;2023-01-30T08:55:24;101240.88;;;19.62;28.36
37710;BME280;60223;34.854;-92.408;2023-01-30T08:57:50;101230.34;;;19.52;28.45
37710;BME280;60223;34.854;-92.408;2023-01-30T09:00:14;101231.34;;;19.57;28.37
37710;BME280;60223;34.854;-92.408;2023-01-30T09:02:40;101242.50;;;19.39;28.52
37710;BME280;60223;34.854;-92.408;2023-01-30T09:05:08;101241.23;;;19.48;28.44
37710;BME280;60223;34.854;-92.408;2023-01-30T09:07:32;101234.71;;;19.49;28.36
37710;BME280;60223;34.854;-92.408;2023-01-30T09:09:58;101234.54;;;19.67;28.44
37710;BME280;60223;34.854;-92.408;2023-01-30T09:12:25;101244.21;;;19.35;28.46
37710;BME280;60223;34.854;-92.408;2023-01-30T09:14:50;101248.47;;;19.50;28.54
37710;BME280;60223;34.854;-92.408;2023-01-30T09:17:16;101250.79;;;19.79;28.23
37710;BME280;60223;34.854;-92.408;2023-01-30T09:19:42;101250.02;;;19.73;28.50
37710;BME280;60223;34.854;-92.408;2023-01-30T09:22:06;101253.17;;;19.61;28.40
37710;BME280;60223;34.854;-92.408;2023-01-30T09:24:33;101253.25;;;19.03;28.69
37710;BME280;60223;34.854;-92.408;2023-01-30T09:26:59;101254.72;;;19.56;28.36
37710;BME280;60223;34.854;-92.408;2023-01-30T09:29:25;101255.63;;;19.40;28.54
37710;BME280;60223;34.854;-92.408;2023-01-30T09:31:47;101252.21;;;19.80;28.33
37710;BME280;60223;34.854;-92.408;2023-01-30T09:34:16;101260.81;;;19.72;28.17
37710;BME280;60223;34.854;-92.408;2023-01-30T09:36:42;101262.46;;;19.33;28.27
37710;BME280;60223;34.854;-92.408;2023-01-30T09:39:08;101267.94;;;19.45;28.41
37710;BME280;60223;34.854;-92.408;2023-01-30T09:41:46;101268.94;;;19.36;28.46
37710;BME280;60223;34.854;-92.408;2023-01-30T09:44:13;101265.65;;;19.37;28.42
37710;BME280;60223;34.854;-92.408;2023-01-30T09:46:30;101269.08;;;19.22;28.56
37710;BME280;60223;34.854;-92.408;2023-01-30T09:48:56;101273.97;;;19.70;28.29
37710;BME280;60223;34.854;-92.408;2023-01-30T09:51:27;101266.75;;;19.11;28.41
37710;BME280;60223;34.854;-92.408;2023-01-30T09:53:52;101253.98;;;19.09;28.43
37710;BME280;60223;34.854;-92.408;2023-01-30T09:56:08;101248.04;;;19.50;28.43
37710;BME280;60223;34.854;-92.408;2023-01-30T09:58:41;101249.14;;;19.11;28.55
37710;BME280;60223;34.854;-92.408;2023-01-30T10:01:03;101245.35;;;19.55;28.34
37710;BME280;60223;34.854;-92.408;2023-01-30T10:03:28;101249.02;;;19.11;28.52
37710;BME280;60223;34.854;-92.408;2023-01-30T10:05:53;101250.55;;;19.31;28.30
37710;BME280;60223;34.854;-92.408;2023-01-30T10:10:50;101270.56;;;19.15;28.43
37710;BME280;60223;34.854;-92.408;2023-01-30T10:13:19;101287.46;;;19.04;28.51
37710;BME280;60223;34.854;-92.408;2023-01-30T10:15:43;101296.15;;;19.26;28.29
37710;BME280;60223;34.854;-92.408;2023-01-30T10:18:12;101295.62;;;18.98;28.30
37710;BME280;60223;34.854;-92.408;2023-01-30T10:20:36;101300.91;;;19.46;28.27
37710;BME280;60223;34.854;-92.408;2023-01-30T10:22:57;101304.33;;;18.99;28.48
37710;BME280;60223;34.854;-92.408;2023-01-30T10:25:25;101311.79;;;19.31;28.39
37710;BME280;60223;34.854;-92.408;2023-01-30T10:27:49;101308.25;;;19.10;28.55
37710;BME280;60223;34.854;-92.408;2023-01-30T10:30:13;101307.03;;;19.30;28.34
37710;BME280;60223;34.854;-92.408;2023-01-30T10:32:39;101302.19;;;19.37;28.29
37710;BME280;60223;34.854;-92.408;2023-01-30T10:35:03;101298.23;;;19.29;28.39
37710;BME280;60223;34.854;-92.408;2023-01-30T10:37:31;101301.18;;;19.48;28.26
37710;BME280;60223;34.854;-92.408;2023-01-30T10:39:57;101302.62;;;19.30;28.27
37710;BME280;60223;34.854;-92.408;2023-01-30T10:42:22;101304.44;;;19.77;28.16
37710;BME280;60223;34.854;-92.408;2023-01-30T10:44:44;101304.48;;;20.00;28.02
37710;BME280;60223;34.854;-92.408;2023-01-30T10:47:23;101308.32;;;19.71;27.86
37710;BME280;60223;34.854;-92.408;2023-01-30T10:49:41;101306.71;;;20.17;28.03
37710;BME280;60223;34.854;-92.408;2023-01-30T10:52:09;101305.21;;;19.79;28.21
37710;BME280;60223;34.854;-92.408;2023-01-30T10:54:27;101298.46;;;19.76;28.15
37710;BME280;60223;34.854;-92.408;2023-01-30T10:56:57;101304.74;;;19.99;27.98
37710;BME280;60223;34.854;-92.408;2023-01-30T10:59:22;101307.55;;;20.18;27.82
37710;BME280;60223;34.854;-92.408;2023-01-30T11:01:47;101307.23;;;20.24;27.82
37710;BME280;60223;34.854;-92.408;2023-01-30T11:04:18;101313.11;;;20.45;27.71
37710;BME280;60223;34.854;-92.408;2023-01-30T11:06:37;101316.83;;;20.54;27.70
37710;BME280;60223;34.854;-92.408;2023-01-30T11:09:02;101326.68;;;20.58;27.56
37710;BME280;60223;34.854;-92.408;2023-01-30T11:11:29;101331.32;;;20.71;27.64
37710;BME280;60223;34.854;-92.408;2023-01-30T11:16:19;101350.63;;;20.79;27.68
37710;BME280;60223;34.854;-92.408;2023-01-30T11:18:49;101361.26;;;20.78;27.65
37710;BME280;60223;34.854;-92.408;2023-01-30T11:21:16;101350.56;;;20.98;27.51
37710;BME280;60223;34.854;-92.408;2023-01-30T11:23:39;101354.84;;;20.86;27.42
37710;BME280;60223;34.854;-92.408;2023-01-30T11:26:02;101354.06;;;20.96;27.40
37710;BME280;60223;34.854;-92.408;2023-01-30T11:28:33;101361.30;;;21.05;27.42
37710;BME280;60223;34.854;-92.408;2023-01-30T11:30:57;101360.74;;;21.37;27.21
37710;BME280;60223;34.854;-92.408;2023-01-30T11:33:22;101363.95;;;21.43;27.21
37710;BME280;60223;34.854;-92.408;2023-01-30T11:35:51;101373.86;;;21.52;27.26
37710;BME280;60223;34.854;-92.408;2023-01-30T11:38:21;101379.61;;;21.47;27.29
37710;BME280;60223;34.854;-92.408;2023-01-30T11:40:40;101380.84;;;21.65;27.25
37710;BME280;60223;34.854;-92.408;2023-01-30T11:43:09;101380.67;;;21.88;27.08
37710;BME280;60223;34.854;-92.408;2023-01-30T11:45:30;101386.89;;;21.52;26.96
37710;BME280;60223;34.854;-92.408;2023-01-30T11:47:57;101385.40;;;21.79;27.03
37710;BME280;60223;34.854;-92.408;2023-01-30T11:50:18;101390.78;;;22.26;26.95
37710;BME280;60223;34.854;-92.408;2023-01-30T11:52:46;101392.41;;;22.37;26.91
37710;BME280;60223;34.854;-92.408;2023-01-30T11:55:15;101390.60;;;22.04;26.86
37710;BME280;60223;34.854;-92.408;2023-01-30T11:57:42;101392.21;;;22.06;26.99
37710;BME280;60223;34.854;-92.408;2023-01-30T12:00:01;101398.24;;;22.33;27.04
37710;BME280;60223;34.854;-92.408;2023-01-30T12:02:32;101402.10;;;22.22;26.96
37710;BME280;60223;34.854;-92.408;2023-01-30T12:04:56;101398.56;;;22.18;26.97
37710;BME280;60223;34.854;-92.408;2023-01-30T12:07:20;101396.51;;;22.26;26.87
37710;BME280;60223;34.854;-92.408;2023-01-30T12:09:46;101396.63;;;22.39;26.80
37710;BME280;60223;34.854;-92.408;2023-01-30T12:14:41;101408.62;;;22.66;26.63
37710;BME280;60223;34.854;-92.408;2023-01-30T12:17:05;101404.97;;;22.71;26.64
37710;BME280;60223;34.854;-92.408;2023-01-30T12:19:40;101405.63;;;22.71;26.72
37710;BME280;60223;34.854;-92.408;2023-01-30T12:22:00;101407.72;;;22.69;26.83
37710;BME280;60223;34.854;-92.408;2023-01-30T12:24:24;101400.09;;;22.79;26.79
37710;BME280;60223;34.854;-92.408;2023-01-30T12:26:50;101408.48;;;22.76;26.80
37710;BME280;60223;34.854;-92.408;2023-01-30T12:29:20;101406.85;;;22.55;26.96
37710;BME280;60223;34.854;-92.408;2023-01-30T12:31:38;101419.90;;;22.76;26.76
37710;BME280;60223;34.854;-92.408;2023-01-30T12:34:03;101410.41;;;22.77;26.73
37710;BME280;60223;34.854;-92.408;2023-01-30T12:36:38;101400.96;;;22.52;26.73
37710;BME280;60223;34.854;-92.408;2023-01-30T12:41:30;101410.32;;;22.73;26.61
37710;BME280;60223;34.854;-92.408;2023-01-30T12:43:57;101415.50;;;22.99;26.66